Current Weather

Ali Al Salem Ab

Ali Al Salem Ab, Kuwait (OKAS)

Report from: Sunday, July 14, 2024 9:55 AM UTC
Current time: Sunday, July 14, 2024 11:03 AM UTC

Nearby weather – Weather history – Daily summaries
Weather forecast

Temperature45.4°C (113.7°F)
Heat index42.1°C (107.8°F)
Dew point5.1°C (41.2°F)
Winds 16 kts (8.2 m/s, 18.4 mph) West-Northwest (300°)
Wind gusts 24 kts (12.3 m/s, 27.6 mph)
Peak wind 27 kts (13.9 m/s, 31.1 mph) West-Northwest (300°)
Visibility6.2 mi. (10 km)
Clouds Few clouds 24,000 ft. (7,315 m)
Few clouds 27,000 ft. (8,230 m)
Few clouds 29,000 ft. (8,839 m)
Scattered clouds 31,000 ft. (9,449 m)
Scattered clouds 34,000 ft. (10,363 m)
Altimeter29.45 in.Hg (997 mB)
Relative humidity9 %
Density altitude4,066 ft. (1,239 m)
Sea-level pressure99.7 kPa (997 mB, 29.43 in.Hg)
Remarks Fully automated report
System requires maintenance
Automated weather observing station with precipitation discriminator
Flight conditions Visual Meteorological Conditions
Raw dataOKAS 140955Z AUTO 30016G24KT 9999 FEW240 FEW270 FEW290 SCT310 SCT340 45/05 A2945 RMK AO2 PK WND 30027/25 SLP966 T04540051 $
An error has occurred. This application may no longer respond until reloaded. Reload 🗙